Time;durP1;ratioP1;P1;durP2;ratioP2;P2;SDS_P1;SDS_P2;PMS_P1;PMS_P2;Temp;Humidity;BMP_temperature;BMP_pressure;BME280_temperature;BME280_humidity;BME280_pressure;Samples;Min_cycle;Max_cycle;Signal;HPM_P1;HPM_P2
2023/10/17 00:01:33;;;;;;;4.40;2.00;;;8.30;99.90;;;;;;5056729;28;20041;-68
2023/10/17 00:04:49;;;;;;;3.90;2.20;;;8.30;99.90;;;;;;5059283;28;20944;-68
2023/10/17 00:07:02;;;;;;;8.77;2.05;;;8.10;99.90;;;;;;5048282;28;20045;-68
2023/10/17 00:09:36;;;;;;;3.40;2.35;;;8.10;99.90;;;;;;5073888;28;20059;-67
2023/10/17 00:12:09;;;;;;;5.53;3.70;;;8.20;99.90;;;;;;5099410;28;20119;-69
2023/10/17 00:14:44;;;;;;;3.95;2.22;;;8.20;99.90;;;;;;5098325;28;20044;-68
2023/10/17 00:17:13;;;;;;;2.55;2.30;;;8.20;99.90;;;;;;5098775;28;20880;-69
2023/10/17 00:19:41;;;;;;;5.10;2.40;;;8.20;99.90;;;;;;5099051;28;20072;-67
2023/10/17 00:22:10;;;;;;;4.55;3.00;;;8.20;99.90;;;;;;5097454;28;20129;-68
2023/10/17 00:24:39;;;;;;;5.28;3.10;;;8.20;99.90;;;;;;5115424;28;20912;-67
2023/10/17 00:27:06;;;;;;;8.48;3.53;;;8.20;99.90;;;;;;5118782;28;20441;-69
2023/10/17 00:29:33;;;;;;;3.35;2.78;;;8.20;99.90;;;;;;5119663;28;20095;-68
2023/10/17 00:31:58;;;;;;;5.43;3.47;;;8.10;99.90;;;;;;5119230;28;20070;-69
2023/10/17 00:34:25;;;;;;;4.03;2.70;;;8.10;99.90;;;;;;5119232;28;20043;-69
2023/10/17 00:36:51;;;;;;;5.38;2.47;;;8.20;99.90;;;;;;5118776;28;20058;-67
2023/10/17 00:39:31;;;;;;;5.60;3.03;;;8.20;99.90;;;;;;5117458;28;20585;-68
2023/10/17 00:44:36;;;;;;;4.03;2.90;;;8.20;99.90;;;;;;5117898;28;20048;-67
2023/10/17 00:47:08;;;;;;;3.83;2.50;;;8.20;99.90;;;;;;5118566;28;20050;-68
2023/10/17 00:49:44;;;;;;;2.95;2.40;;;8.20;99.90;;;;;;5118988;28;20043;-68
2023/10/17 00:52:22;;;;;;;6.43;3.35;;;8.30;99.90;;;;;;5117237;28;20040;-68
2023/10/17 00:54:51;;;;;;;6.38;2.85;;;8.20;99.90;;;;;;5118671;27;20046;-68
2023/10/17 00:57:17;;;;;;;4.10;2.78;;;8.20;99.90;;;;;;5117564;28;20050;-69
2023/10/17 00:59:50;;;;;;;3.85;3.13;;;8.20;99.90;;;;;;5118717;28;20421;-69
2023/10/17 01:02:23;;;;;;;9.55;3.20;;;8.20;99.90;;;;;;5118255;28;20051;-68
2023/10/17 01:04:56;;;;;;;4.28;2.67;;;8.20;99.90;;;;;;5117308;27;20839;-68
2023/10/17 01:07:34;;;;;;;3.60;2.67;;;8.30;99.90;;;;;;5117770;28;20050;-68
2023/10/17 01:10:10;;;;;;;5.85;3.08;;;8.20;99.90;;;;;;5117082;28;20052;-68
2023/10/17 01:13:00;;;;;;;5.30;2.92;;;8.30;99.90;;;;;;5118157;28;20047;-68
2023/10/17 01:15:28;;;;;;;4.70;3.30;;;8.20;99.90;;;;;;5117971;28;20043;-67
2023/10/17 01:17:57;;;;;;;4.10;3.03;;;8.10;99.90;;;;;;5117167;28;20043;-67
2023/10/17 01:20:23;;;;;;;5.13;3.38;;;8.10;99.90;;;;;;5117925;28;20040;-68
2023/10/17 01:22:49;;;;;;;4.43;2.75;;;8.20;99.90;;;;;;5117237;28;20065;-68
2023/10/17 01:25:24;;;;;;;5.53;3.00;;;8.10;99.90;;;;;;5098156;28;20146;-69
2023/10/17 01:27:54;;;;;;;5.63;2.88;;;8.10;99.90;;;;;;5119871;27;20055;-68
2023/10/17 01:30:21;;;;;;;8.02;3.17;;;8.10;99.90;;;;;;5138075;27;20039;-69
2023/10/17 01:32:49;;;;;;;7.30;3.35;;;8.00;99.90;;;;;;5138328;27;20059;-67
2023/10/17 01:35:19;;;;;;;6.05;3.03;;;8.00;99.90;;;;;;5137112;27;20050;-68
2023/10/17 01:37:46;;;;;;;4.50;2.80;;;8.00;99.90;;;;;;5138316;27;20403;-69
2023/10/17 01:40:22;;;;;;;3.53;2.50;;;8.00;99.90;;;;;;5138099;27;20099;-68
2023/10/17 01:42:50;;;;;;;6.70;2.63;;;8.00;99.90;;;;;;5138348;27;20047;-68
2023/10/17 01:45:16;;;;;;;7.68;2.65;;;8.00;99.90;;;;;;5120237;27;20080;-69
2023/10/17 01:47:43;;;;;;;5.50;3.13;;;7.90;99.90;;;;;;5118339;27;20091;-68
2023/10/17 01:50:10;;;;;;;6.30;3.20;;;7.90;99.90;;;;;;5137951;27;20058;-69
2023/10/17 01:52:37;;;;;;;5.55;2.75;;;7.80;99.90;;;;;;5137129;27;20059;-68
2023/10/17 01:55:10;;;;;;;5.63;2.92;;;7.80;99.90;;;;;;5137440;27;20062;-68
2023/10/17 01:57:40;;;;;;;6.10;2.97;;;7.70;99.90;;;;;;5137915;27;20057;-69
2023/10/17 02:02:57;;;;;;;2.90;2.70;;;7.70;99.90;;;;;;5137963;27;20047;-68
2023/10/17 02:05:24;;;;;;;4.00;2.40;;;7.70;99.90;;;;;;5136571;27;20047;-68
2023/10/17 02:07:50;;;;;;;5.40;2.60;;;7.70;99.90;;;;;;5119361;28;20050;-69
2023/10/17 02:10:21;;;;;;;5.75;4.25;;;7.60;99.90;;;;;;5137200;28;20110;-68
2023/10/17 02:12:49;;;;;;;8.65;4.45;;;7.50;99.90;;;;;;5137336;27;20055;-68
2023/10/17 02:15:24;;;;;;;3.95;2.55;;;7.60;99.90;;;;;;5137375;28;20043;-68
2023/10/17 02:17:52;;;;;;;12.13;2.80;;;7.50;99.90;;;;;;5136440;28;20039;-69
2023/10/17 02:20:21;;;;;;;3.00;2.70;;;7.60;99.90;;;;;;5137776;28;20099;-68
2023/10/17 02:22:49;;;;;;;2.88;2.22;;;7.60;99.90;;;;;;5136823;28;20074;-68
2023/10/17 02:25:18;;;;;;;4.07;2.92;;;7.50;99.90;;;;;;5137614;28;20075;-69
2023/10/17 02:27:44;;;;;;;5.70;2.97;;;7.50;99.90;;;;;;5137803;28;20094;-68
2023/10/17 02:30:12;;;;;;;4.88;2.47;;;7.50;99.90;;;;;;5137086;28;20076;-68
2023/10/17 02:32:43;;;;;;;5.47;2.65;;;7.50;99.90;;;;;;5137588;28;20080;-68
2023/10/17 02:35:15;;;;;;;4.13;2.90;;;7.50;99.90;;;;;;5136661;28;20058;-69
2023/10/17 02:37:43;;;;;;;7.15;2.78;;;7.50;99.90;;;;;;5138002;28;20039;-69
2023/10/17 02:40:22;;;;;;;6.55;2.80;;;7.50;99.90;;;;;;5137136;28;20043;-70
2023/10/17 02:42:51;;;;;;;3.17;2.20;;;7.50;99.90;;;;;;5137079;28;20048;-70
2023/10/17 02:45:24;;;;;;;4.07;2.50;;;7.50;99.90;;;;;;5138055;28;20050;-68
2023/10/17 02:47:54;;;;;;;5.85;2.72;;;7.50;99.90;;;;;;5136405;28;20077;-70
2023/10/17 02:50:43;;;;;;;4.82;3.00;;;7.50;99.90;;;;;;5119544;28;20131;-69
2023/10/17 02:53:14;;;;;;;4.05;2.72;;;7.40;99.90;;;;;;5136872;28;20066;-69
2023/10/17 02:55:39;;;;;;;3.80;2.85;;;7.40;99.90;;;;;;5137410;28;20069;-69
2023/10/17 02:58:06;;;;;;;4.18;2.97;;;7.40;99.90;;;;;;5138025;28;20035;-69
2023/10/17 03:00:35;;;;;;;4.85;2.78;;;7.40;99.90;;;;;;5136996;28;20078;-69
2023/10/17 03:03:12;;;;;;;3.80;2.97;;;7.40;99.90;;;;;;5137537;28;20062;-68
2023/10/17 03:05:43;;;;;;;3.83;3.15;;;7.40;99.90;;;;;;5136818;28;20667;-68
2023/10/17 03:08:15;;;;;;;4.75;3.25;;;7.40;99.90;;;;;;5138085;28;20051;-69
2023/10/17 03:10:42;;;;;;;6.17;2.70;;;7.40;99.90;;;;;;5137271;28;20106;-69
2023/10/17 03:13:52;;;;;;;6.38;2.67;;;7.40;99.90;;;;;;5136936;28;20077;-68
2023/10/17 03:16:15;;;;;;;4.57;3.38;;;7.40;99.90;;;;;;5125838;28;20051;-68
2023/10/17 03:18:41;;;;;;;5.00;2.78;;;7.40;99.90;;;;;;5137008;28;20047;-68
2023/10/17 03:21:08;;;;;;;6.38;2.92;;;7.40;99.90;;;;;;5137380;28;20077;-67
2023/10/17 03:23:34;;;;;;;5.68;3.15;;;7.40;99.90;;;;;;5137434;27;20400;-69
2023/10/17 03:26:03;;;;;;;6.65;2.95;;;7.20;99.90;;;;;;5139516;27;20058;-68
2023/10/17 03:28:33;;;;;;;4.85;2.83;;;7.20;99.90;;;;;;5141990;27;20043;-69
2023/10/17 03:30:59;;;;;;;3.22;2.50;;;7.10;99.90;;;;;;5140002;27;20094;-68
2023/10/17 03:33:28;;;;;;;5.07;2.75;;;7.20;99.90;;;;;;5129223;27;20103;-68
2023/10/17 03:38:27;;;;;;;5.97;2.50;;;7.20;99.90;;;;;;5119931;28;20079;-68
2023/10/17 03:41:02;;;;;;;3.28;2.53;;;7.10;99.90;;;;;;5119992;28;20048;-69
2023/10/17 03:43:45;;;;;;;4.95;3.17;;;7.00;99.90;;;;;;5118775;28;20048;-69
2023/10/17 03:46:15;;;;;;;3.63;2.45;;;7.00;99.90;;;;;;5119737;28;20104;-67
2023/10/17 03:48:49;;;;;;;6.18;3.30;;;7.10;99.90;;;;;;5119123;28;20137;-67
2023/10/17 03:51:22;;;;;;;4.65;3.08;;;7.10;99.90;;;;;;5119790;28;20051;-68
2023/10/17 03:53:53;;;;;;;7.03;2.83;;;7.00;99.90;;;;;;5119983;28;20095;-68
2023/10/17 03:56:25;;;;;;;3.38;2.60;;;7.00;99.90;;;;;;5118625;28;20409;-68
2023/10/17 03:58:57;;;;;;;3.70;2.88;;;6.90;99.90;;;;;;5119518;28;20047;-68
2023/10/17 04:01:23;;;;;;;3.63;2.55;;;6.90;99.90;;;;;;5118460;28;20131;-68
2023/10/17 04:03:56;;;;;;;5.00;2.88;;;6.90;99.90;;;;;;5119987;28;20510;-68
2023/10/17 04:06:36;;;;;;;3.78;2.70;;;6.90;99.90;;;;;;5119568;28;20043;-66
2023/10/17 04:11:56;;;;;;;4.20;2.80;;;6.80;99.90;;;;;;5119363;28;20130;-67
2023/10/17 04:14:33;;;;;;;3.92;2.45;;;6.80;99.90;;;;;;5117658;28;20075;-66
2023/10/17 04:17:02;;;;;;;6.43;2.70;;;6.80;99.90;;;;;;5119382;28;20131;-68
2023/10/17 04:19:30;;;;;;;5.72;4.13;;;6.80;99.90;;;;;;5119407;28;20067;-67
2023/10/17 04:24:35;;;;;;;5.63;2.90;;;6.70;99.90;;;;;;5119430;28;20044;-67
2023/10/17 04:29:37;;;;;;;3.10;2.47;;;6.70;99.90;;;;;;5118875;28;20054;-67
2023/10/17 04:32:10;;;;;;;5.15;2.35;;;6.60;99.90;;;;;;5118989;28;20078;-67
2023/10/17 04:34:44;;;;;;;5.50;2.90;;;6.70;99.90;;;;;;5118296;28;20058;-67
2023/10/17 04:37:31;;;;;;;4.90;2.35;;;6.70;99.90;;;;;;5118368;28;20057;-68
2023/10/17 04:40:20;;;;;;;4.68;2.55;;;6.70;99.90;;;;;;5117687;28;20040;-67
2023/10/17 04:45:23;;;;;;;3.22;2.65;;;6.60;99.90;;;;;;5119114;28;20070;-67
2023/10/17 04:48:10;;;;;;;4.40;2.42;;;6.60;99.90;;;;;;5117797;28;20039;-67
2023/10/17 04:50:44;;;;;;;6.85;2.20;;;6.60;99.90;;;;;;5118888;28;20032;-68
2023/10/17 04:53:19;;;;;;;2.10;2.00;;;6.60;99.90;;;;;;5118599;28;20056;-68
2023/10/17 04:56:09;;;;;;;5.38;2.40;;;6.70;99.90;;;;;;5118659;28;20078;-68
2023/10/17 04:58:40;;;;;;;4.05;1.98;;;6.60;99.90;;;;;;5118401;28;20058;-67
2023/10/17 05:03:33;;;;;;;4.30;2.47;;;6.70;99.90;;;;;;5118734;28;20071;-67
2023/10/17 05:09:08;;;;;;;5.63;2.55;;;6.50;99.90;;;;;;5026393;28;20144;-68
2023/10/17 06:17:24;;;;;;;2.90;2.28;;;6.50;99.90;;;;;;5116655;28;20067;-68
2023/10/17 06:19:49;;;;;;;4.15;2.40;;;6.50;99.90;;;;;;5117618;28;20860;-68
2023/10/17 06:30:29;;;;;;;3.97;2.90;;;6.50;99.90;;;;;;5117035;28;20048;-68
2023/10/17 06:33:05;;;;;;;6.25;2.80;;;6.50;99.90;;;;;;5117390;28;20043;-68
2023/10/17 06:35:31;;;;;;;3.83;3.00;;;6.40;99.90;;;;;;5116279;28;20032;-68
2023/10/17 06:38:03;;;;;;;4.88;2.70;;;6.50;99.90;;;;;;5117265;28;20042;-66
2023/10/17 06:40:38;;;;;;;4.70;2.97;;;6.40;99.90;;;;;;5098452;28;20109;-66
2023/10/17 06:45:54;;;;;;;5.78;3.70;;;6.40;99.90;;;;;;5117211;28;20048;-68
2023/10/17 06:48:31;;;;;;;5.50;3.55;;;6.40;99.90;;;;;;5115895;28;20059;-67
2023/10/17 06:53:47;;;;;;;3.28;2.83;;;6.50;99.90;;;;;;5116680;28;20051;-69
2023/10/17 06:56:13;;;;;;;6.95;3.08;;;6.60;99.90;;;;;;5115819;28;20051;-68
2023/10/17 06:58:39;;;;;;;4.18;2.70;;;6.60;99.90;;;;;;5117397;28;20040;-69
2023/10/17 07:01:19;;;;;;;3.03;2.70;;;6.60;99.90;;;;;;5119809;28;20036;-68
2023/10/17 07:03:45;;;;;;;5.38;3.10;;;6.60;99.90;;;;;;5120867;28;20043;-67
2023/10/17 07:06:13;;;;;;;5.80;4.47;;;6.70;99.90;;;;;;5120461;28;20035;-68
2023/10/17 07:08:41;;;;;;;3.78;3.30;;;6.70;99.90;;;;;;5119573;28;20043;-67
2023/10/17 07:11:18;;;;;;;3.55;3.08;;;6.80;99.90;;;;;;5120620;28;20067;-68
2023/10/17 07:24:28;;;;;;;6.63;4.15;;;7.00;99.90;;;;;;5120366;28;20066;-67
2023/10/17 07:26:55;;;;;;;11.25;4.90;;;7.10;99.90;;;;;;5119594;28;20039;-68
2023/10/17 07:29:22;;;;;;;4.32;3.92;;;7.20;99.90;;;;;;5120642;28;20043;-74
2023/10/17 07:31:52;;;;;;;9.85;3.85;;;7.30;99.90;;;;;;5120126;28;20051;-76
2023/10/17 07:34:21;;;;;;;5.47;3.95;;;7.40;99.90;;;;;;5101643;28;20173;-69
2023/10/17 07:36:50;;;;;;;9.05;4.97;;;7.50;99.90;;;;;;5119710;28;20043;-66
2023/10/17 07:39:23;;;;;;;11.35;5.82;;;7.60;99.90;;;;;;5118814;28;20040;-66
2023/10/17 07:41:55;;;;;;;;;;;7.50;99.90;;;;;;5120787;28;20077;-66
2023/10/17 07:44:26;;;;;;;6.95;5.20;;;7.60;99.90;;;;;;5119348;28;19920;-66
2023/10/17 07:47:08;;;;;;;12.38;5.25;;;7.60;99.90;;;;;;5119807;28;20086;-66
2023/10/17 07:49:41;;;;;;;8.50;5.22;;;7.60;99.90;;;;;;5120133;28;20104;-67
2023/10/17 07:52:15;;;;;;;9.23;5.25;;;7.70;99.90;;;;;;5118104;28;20047;-66
2023/10/17 07:57:28;;;;;;;13.32;10.55;;;7.70;99.90;;;;;;5119096;28;20102;-66
2023/10/17 07:59:57;;;;;;;11.93;8.10;;;7.70;99.90;;;;;;5119072;28;20054;-67
2023/10/17 08:02:23;;;;;;;11.32;6.00;;;7.80;99.90;;;;;;5119593;28;20039;-65
2023/10/17 08:04:53;;;;;;;7.93;5.55;;;7.80;99.90;;;;;;5118090;28;20044;-66
2023/10/17 08:07:20;;;;;;;7.85;4.50;;;7.90;99.90;;;;;;5118812;28;20134;-67
2023/10/17 08:09:56;;;;;;;9.93;4.78;;;7.90;99.90;;;;;;5117964;28;20920;-66
2023/10/17 08:12:23;;;;;;;7.53;4.95;;;7.90;99.90;;;;;;5118876;28;20044;-66
2023/10/17 08:14:58;;;;;;;5.95;4.38;;;8.00;99.90;;;;;;5118874;28;20047;-67
2023/10/17 08:17:28;;;;;;;6.75;4.68;;;8.10;99.90;;;;;;5099611;28;20047;-68
2023/10/17 08:20:38;;;;;;;5.38;3.97;;;8.20;99.90;;;;;;5119135;28;20055;-67
2023/10/17 08:22:58;;;;;;;8.35;4.20;;;8.20;99.90;;;;;;5117801;28;20043;-66
2023/10/17 08:25:32;;;;;;;5.15;4.40;;;8.20;99.90;;;;;;5118613;28;20135;-67
2023/10/17 08:27:58;;;;;;;6.57;3.88;;;8.30;99.90;;;;;;5119255;28;20097;-66
2023/10/17 08:30:51;;;;;;;6.90;3.95;;;8.20;99.90;;;;;;5117733;28;20039;-67
2023/10/17 08:33:11;;;;;;;5.95;3.90;;;8.20;99.90;;;;;;5118310;28;20056;-66
2023/10/17 08:35:40;;;;;;;7.45;3.67;;;8.30;99.90;;;;;;5117118;28;20036;-66
2023/10/17 08:38:06;;;;;;;4.70;3.28;;;8.30;99.90;;;;;;5118662;28;20051;-66
2023/10/17 08:40:43;;;;;;;6.93;3.40;;;8.40;99.90;;;;;;5118474;28;20058;-67
2023/10/17 08:43:17;;;;;;;7.20;3.95;;;8.50;99.90;;;;;;5117817;28;20074;-67
2023/10/17 08:45:46;;;;;;;6.53;3.65;;;8.60;99.90;;;;;;5118672;28;20471;-70
2023/10/17 08:48:12;;;;;;;3.20;2.67;;;8.60;99.90;;;;;;5117421;28;20527;-67
2023/10/17 08:50:41;;;;;;;5.53;2.83;;;8.60;99.90;;;;;;5118369;28;20067;-67
2023/10/17 08:53:18;;;;;;;5.85;2.65;;;8.60;99.90;;;;;;5118037;28;20043;-67
2023/10/17 08:55:44;;;;;;;10.07;4.50;;;8.70;99.90;;;;;;5117960;28;20049;-67
2023/10/17 08:58:17;;;;;;;5.65;3.45;;;8.70;99.90;;;;;;5118459;28;20099;-67
2023/10/17 09:00:49;;;;;;;3.30;2.80;;;8.80;99.90;;;;;;5117255;28;20114;-68
2023/10/17 09:03:35;;;;;;;3.58;2.58;;;8.80;99.90;;;;;;5118706;28;20074;-68
2023/10/17 09:08:52;;;;;;;5.07;2.58;;;9.00;99.90;;;;;;5117759;28;20073;-67
2023/10/17 09:11:33;;;;;;;3.85;2.25;;;9.00;99.90;;;;;;5118430;28;20068;-67
2023/10/17 09:14:17;;;;;;;7.38;2.15;;;9.00;99.90;;;;;;5117009;28;20048;-67
2023/10/17 09:17:00;;;;;;;3.08;2.10;;;9.10;99.90;;;;;;5118079;28;20054;-67
2023/10/17 09:19:26;;;;;;;4.47;2.10;;;9.20;99.90;;;;;;5099752;28;20058;-68
2023/10/17 09:21:51;;;;;;;7.38;2.97;;;9.30;99.90;;;;;;5116983;28;20043;-67
2023/10/17 09:24:36;;;;;;;3.70;2.38;;;9.30;99.90;;;;;;5118310;28;20039;-67
2023/10/17 09:27:13;;;;;;;7.43;2.25;;;9.40;99.90;;;;;;5117177;28;20145;-68
2023/10/17 09:29:59;;;;;;;4.65;2.17;;;9.50;99.90;;;;;;5083955;28;20051;-72
2023/10/17 09:32:34;;;;;;;7.30;2.17;;;9.50;99.90;;;;;;5118075;28;20051;-72
2023/10/17 09:35:10;;;;;;;4.30;1.63;;;9.50;99.90;;;;;;5116405;28;20051;-70
2023/10/17 09:37:44;;;;;;;2.90;1.60;;;9.60;99.90;;;;;;5099531;28;20566;-71
2023/10/17 09:40:12;;;;;;;6.18;1.40;;;9.70;99.90;;;;;;5117263;28;20074;-72
2023/10/17 09:42:40;;;;;;;2.25;1.40;;;9.70;99.90;;;;;;5117392;28;20047;-72
2023/10/17 09:45:09;;;;;;;4.47;1.38;;;9.80;99.90;;;;;;5117878;28;20050;-72
2023/10/17 09:47:44;;;;;;;3.15;1.20;;;9.80;99.90;;;;;;5115927;28;20103;-73
2023/10/17 09:50:18;;;;;;;1.73;1.30;;;9.90;99.90;;;;;;5117397;28;20047;-72
2023/10/17 09:52:56;;;;;;;2.97;1.33;;;9.90;99.90;;;;;;5098182;28;20071;-72
2023/10/17 09:55:25;;;;;;;2.83;1.27;;;9.90;99.90;;;;;;5099017;28;20043;-73
2023/10/17 09:57:56;;;;;;;2.60;1.02;;;10.00;99.90;;;;;;5117253;28;20564;-72
2023/10/17 10:00:54;;;;;;;3.95;1.30;;;10.00;99.90;;;;;;5097828;28;20063;-72
2023/10/17 10:03:21;;;;;;;2.53;1.20;;;10.10;99.90;;;;;;5060490;28;20052;-71
2023/10/17 10:05:47;;;;;;;2.03;1.20;;;10.10;99.90;;;;;;5116465;28;20432;-71
2023/10/17 10:08:32;;;;;;;2.40;1.08;;;10.10;99.90;;;;;;5116923;28;20051;-71
2023/10/17 10:11:00;;;;;;;4.50;1.95;;;10.20;99.90;;;;;;5112476;28;20050;-71
2023/10/17 10:13:28;;;;;;;3.03;1.52;;;10.20;99.90;;;;;;5097017;28;20086;-71
2023/10/17 10:16:01;;;;;;;1.42;1.20;;;10.20;99.90;;;;;;5116541;28;20040;-72
2023/10/17 10:18:36;;;;;;;3.95;1.10;;;10.30;99.90;;;;;;5097098;28;20059;-71
2023/10/17 10:21:02;;;;;;;2.10;1.08;;;10.30;99.90;;;;;;5116694;28;20051;-71
2023/10/17 10:23:42;;;;;;;4.88;1.42;;;10.30;99.90;;;;;;5116766;28;20039;-71
2023/10/17 10:26:19;;;;;;;6.45;2.13;;;10.40;99.90;;;;;;5115855;28;20127;-72
2023/10/17 10:28:49;;;;;;;1.60;0.90;;;10.50;99.90;;;;;;5098767;28;20063;-72
2023/10/17 10:31:27;;;;;;;4.65;1.88;;;10.50;99.90;;;;;;5115475;28;20052;-72
2023/10/17 10:33:55;;;;;;;3.70;1.20;;;10.50;99.90;;;;;;5117717;28;20043;-72
2023/10/17 10:36:23;;;;;;;2.13;1.10;;;10.50;99.90;;;;;;5102972;28;20070;-72
2023/10/17 10:38:49;;;;;;;4.22;1.40;;;10.50;99.90;;;;;;5120382;28;20118;-72
2023/10/17 10:41:15;;;;;;;1.30;1.20;;;10.60;99.90;;;;;;5121356;28;20599;-72
2023/10/17 10:43:46;;;;;;;3.55;1.20;;;10.60;99.90;;;;;;5120294;28;20051;-71
2023/10/17 10:46:14;;;;;;;3.22;1.10;;;10.60;99.90;;;;;;5102424;28;20055;-72
2023/10/17 10:48:47;;;;;;;1.80;1.65;;;10.60;99.90;;;;;;5102224;28;20040;-72
2023/10/17 10:51:17;;;;;;;2.08;1.20;;;10.70;99.90;;;;;;5102269;28;20067;-72
2023/10/17 10:53:54;;;;;;;2.85;1.42;;;10.60;99.90;;;;;;5120753;28;20051;-72
2023/10/17 10:56:22;;;;;;;2.50;1.30;;;10.70;99.90;;;;;;5119515;28;20532;-71
2023/10/17 10:58:51;;;;;;;5.22;1.63;;;10.70;99.90;;;;;;5085315;28;20091;-71
2023/10/17 11:01:23;;;;;;;3.83;1.50;;;10.70;99.90;;;;;;5100965;28;20043;-71
2023/10/17 11:03:50;;;;;;;2.22;1.40;;;10.80;99.90;;;;;;5119206;28;20048;-73
2023/10/17 11:06:24;;;;;;;6.60;1.60;;;10.80;99.90;;;;;;5102218;28;20048;-72
2023/10/17 11:08:51;;;;;;;3.13;1.48;;;10.80;99.90;;;;;;5100925;28;20059;-70
2023/10/17 11:11:19;;;;;;;3.53;1.25;;;10.80;99.90;;;;;;5102524;28;20444;-71
2023/10/17 11:13:47;;;;;;;1.45;1.35;;;10.80;99.90;;;;;;5119432;28;20039;-72
2023/10/17 11:16:25;;;;;;;2.92;1.80;;;10.80;99.90;;;;;;5101867;28;20113;-73
2023/10/17 11:18:51;;;;;;;7.25;3.13;;;10.80;99.90;;;;;;5120098;28;20044;-72
2023/10/17 11:21:20;;;;;;;2.25;1.90;;;10.80;99.90;;;;;;5120188;28;20078;-72
2023/10/17 11:23:59;;;;;;;2.28;1.30;;;10.90;99.90;;;;;;5120389;28;20078;-68
2023/10/17 11:26:28;;;;;;;5.38;1.45;;;10.90;99.90;;;;;;5119303;28;20055;-72
2023/10/17 11:28:54;;;;;;;4.88;1.30;;;10.90;99.90;;;;;;5101285;28;20099;-71
2023/10/17 11:31:24;;;;;;;2.25;1.13;;;11.00;99.90;;;;;;5119418;28;20096;-72
2023/10/17 11:33:55;;;;;;;1.60;1.15;;;11.00;99.90;;;;;;5120071;28;20451;-72
2023/10/17 11:36:22;;;;;;;5.15;1.27;;;11.00;99.90;;;;;;5084733;28;20055;-71
2023/10/17 11:39:04;;;;;;;4.95;1.48;;;11.00;99.90;;;;;;5118979;28;20046;-72
2023/10/17 11:41:38;;;;;;;3.17;2.15;;;11.00;99.90;;;;;;5084603;28;20058;-69
2023/10/17 11:44:09;;;;;;;4.10;1.10;;;11.00;99.90;;;;;;5118482;28;20054;-73
2023/10/17 11:46:38;;;;;;;3.00;1.60;;;11.10;99.90;;;;;;5100328;28;20876;-72
2023/10/17 11:49:30;;;;;;;4.78;1.50;;;11.10;99.90;;;;;;5101327;28;20064;-72
2023/10/17 11:52:12;;;;;;;2.65;1.38;;;11.10;99.90;;;;;;5117695;28;20051;-72
2023/10/17 11:55:00;;;;;;;3.20;1.60;;;11.10;99.90;;;;;;5119590;28;20657;-71
2023/10/17 11:57:28;;;;;;;1.58;1.23;;;11.10;99.90;;;;;;5100408;28;20869;-71
2023/10/17 11:59:57;;;;;;;5.38;1.13;;;11.00;99.90;;;;;;5118397;28;20768;-72
2023/10/17 12:02:23;;;;;;;3.60;1.40;;;11.10;99.90;;;;;;5100947;28;20046;-72
2023/10/17 12:04:49;;;;;;;3.38;1.30;;;11.10;99.90;;;;;;5099749;28;20039;-71
2023/10/17 12:07:15;;;;;;;5.68;1.85;;;11.10;99.90;;;;;;5119241;28;20058;-72
2023/10/17 12:09:41;;;;;;;3.83;1.42;;;11.10;99.90;;;;;;5099645;28;20417;-71
2023/10/17 12:12:07;;;;;;;1.92;1.42;;;11.10;99.90;;;;;;5101086;28;20059;-70
2023/10/17 12:14:36;;;;;;;4.22;1.45;;;11.10;99.90;;;;;;5100330;28;20096;-70
2023/10/17 12:17:03;;;;;;;5.35;1.50;;;11.20;99.90;;;;;;5100876;28;20054;-71
2023/10/17 12:19:29;;;;;;;3.50;1.45;;;11.20;99.90;;;;;;5122937;28;20039;-73
2023/10/17 12:22:00;;;;;;;6.30;2.67;;;11.20;99.90;;;;;;5101474;28;20570;-73
2023/10/17 12:24:29;;;;;;;2.65;1.48;;;11.20;99.90;;;;;;5119440;28;20044;-71
2023/10/17 12:26:57;;;;;;;5.53;1.38;;;11.20;99.90;;;;;;5117451;28;20180;-72
2023/10/17 12:29:25;;;;;;;2.10;1.40;;;11.30;99.90;;;;;;5118621;28;20127;-72
2023/10/17 12:31:59;;;;;;;2.92;1.50;;;11.30;99.90;;;;;;5100442;28;20047;-72
2023/10/17 12:34:28;;;;;;;5.15;1.80;;;11.30;99.90;;;;;;5082477;28;20036;-71
2023/10/17 12:36:54;;;;;;;2.40;1.67;;;11.30;99.90;;;;;;5100294;28;20049;-72
2023/10/17 12:39:23;;;;;;;4.63;1.58;;;11.30;99.90;;;;;;5098974;28;20072;-71
2023/10/17 12:41:50;;;;;;;2.58;1.40;;;11.30;99.90;;;;;;5099863;28;20054;-71
2023/10/17 12:44:18;;;;;;;7.82;2.00;;;11.30;99.90;;;;;;5082823;28;20043;-72
2023/10/17 12:46:44;;;;;;;2.25;1.10;;;11.30;99.90;;;;;;5082997;28;20578;-71
2023/10/17 12:49:14;;;;;;;4.00;1.20;;;11.30;99.90;;;;;;5083579;28;20097;-72
2023/10/17 12:51:47;;;;;;;2.80;1.50;;;11.30;99.90;;;;;;5099120;28;20051;-70
2023/10/17 12:54:13;;;;;;;1.80;1.20;;;11.40;99.90;;;;;;5118582;28;20099;-73
2023/10/17 12:56:39;;;;;;;5.85;2.58;;;11.40;99.90;;;;;;5098389;28;20086;-72
2023/10/17 12:59:12;;;;;;;2.47;1.90;;;11.30;99.90;;;;;;5083511;28;20039;-71
2023/10/17 13:01:38;;;;;;;4.57;1.48;;;11.30;99.90;;;;;;5082791;28;20040;-71
2023/10/17 13:04:04;;;;;;;3.13;1.58;;;11.30;99.90;;;;;;5082818;28;20060;-71
2023/10/17 13:06:30;;;;;;;7.25;4.72;;;11.40;99.90;;;;;;5118440;28;20082;-71
2023/10/17 13:08:56;;;;;;;1.85;1.52;;;11.40;99.90;;;;;;5081693;28;20051;-71
2023/10/17 13:11:26;;;;;;;2.10;1.83;;;11.40;99.90;;;;;;5118041;28;20047;-72
2023/10/17 13:13:57;;;;;;;1.52;1.25;;;11.40;99.90;;;;;;5081360;28;20072;-72
2023/10/17 13:16:26;;;;;;;4.47;1.30;;;11.40;99.90;;;;;;5118186;28;20065;-72
2023/10/17 13:18:56;;;;;;;5.75;1.40;;;11.40;99.90;;;;;;5117628;28;20047;-72
2023/10/17 13:21:25;;;;;;;4.80;1.30;;;11.40;99.90;;;;;;5117278;28;20089;-72
2023/10/17 13:23:51;;;;;;;3.85;1.40;;;11.40;99.90;;;;;;5118197;28;20044;-72
2023/10/17 13:26:21;;;;;;;5.00;1.48;;;11.40;99.90;;;;;;5081445;28;20044;-70
2023/10/17 13:28:47;;;;;;;3.17;1.58;;;11.50;99.90;;;;;;5118079;28;20472;-72
2023/10/17 13:31:15;;;;;;;3.85;1.42;;;11.40;99.90;;;;;;5116803;28;20047;-71
2023/10/17 13:33:42;;;;;;;3.85;1.30;;;11.40;99.90;;;;;;5099416;28;20051;-71
2023/10/17 13:36:11;;;;;;;4.03;1.63;;;11.40;99.90;;;;;;5099171;28;20043;-72
2023/10/17 13:38:40;;;;;;;3.15;1.80;;;11.40;99.90;;;;;;5098508;28;20098;-72
2023/10/17 13:41:09;;;;;;;3.10;1.50;;;11.40;99.90;;;;;;5098900;28;20056;-70
2023/10/17 13:43:36;;;;;;;4.38;1.42;;;11.40;99.90;;;;;;5098127;28;20072;-71
2023/10/17 13:46:14;;;;;;;3.88;1.58;;;11.50;99.90;;;;;;5117439;28;20036;-72
2023/10/17 13:48:49;;;;;;;3.97;1.55;;;11.50;99.90;;;;;;5098432;28;20396;-72
2023/10/17 13:51:18;;;;;;;5.07;1.60;;;11.50;99.90;;;;;;5098394;28;20051;-71
2023/10/17 13:53:45;;;;;;;3.55;1.55;;;11.50;99.90;;;;;;5081965;28;20059;-71
2023/10/17 13:56:15;;;;;;;2.90;1.67;;;11.50;99.90;;;;;;5115989;28;20046;-72
2023/10/17 13:58:41;;;;;;;3.42;1.50;;;11.50;99.90;;;;;;5117375;28;20122;-71
2023/10/17 14:01:27;;;;;;;2.83;1.48;;;11.50;99.90;;;;;;5097658;28;20495;-71
2023/10/17 14:03:55;;;;;;;1.45;1.20;;;11.50;99.90;;;;;;5098399;28;20280;-70
2023/10/17 14:06:22;;;;;;;1.90;1.60;;;11.50;99.90;;;;;;5116993;28;20039;-72
2023/10/17 14:08:48;;;;;;;2.50;1.40;;;11.50;99.90;;;;;;5096459;28;20081;-71
2023/10/17 14:11:20;;;;;;;4.88;1.50;;;11.50;99.90;;;;;;5098504;28;20138;-71
2023/10/17 14:13:46;;;;;;;3.28;1.40;;;11.50;99.90;;;;;;5097509;28;20057;-72
2023/10/17 14:16:15;;;;;;;4.45;2.13;;;11.50;99.90;;;;;;5098597;28;20078;-70
2023/10/17 14:18:46;;;;;;;4.35;1.70;;;11.50;99.90;;;;;;5098168;28;20615;-71
2023/10/17 14:23:57;;;;;;;2.83;1.60;;;11.50;99.90;;;;;;5097952;28;20048;-71
2023/10/17 14:26:33;;;;;;;7.47;1.77;;;11.50;99.90;;;;;;5115813;28;20086;-71
2023/10/17 14:29:03;;;;;;;2.90;1.50;;;11.50;99.90;;;;;;5117194;28;20083;-71
2023/10/17 14:31:32;;;;;;;4.72;2.08;;;11.40;99.90;;;;;;5097967;28;20126;-72
2023/10/17 14:34:00;;;;;;;2.78;1.70;;;11.40;99.90;;;;;;5098363;28;20168;-72
2023/10/17 14:36:36;;;;;;;5.78;1.63;;;11.40;99.90;;;;;;5098442;28;20039;-71
2023/10/17 14:39:05;;;;;;;3.25;1.58;;;11.30;99.90;;;;;;5079814;28;20042;-71
2023/10/17 14:41:31;;;;;;;3.47;1.70;;;11.40;99.90;;;;;;5086399;28;20055;-71
2023/10/17 14:43:56;;;;;;;6.00;1.90;;;11.30;99.90;;;;;;5105086;28;20063;-70
2023/10/17 14:46:22;;;;;;;3.03;1.58;;;11.30;99.90;;;;;;5105274;28;21699;-71
2023/10/17 14:48:48;;;;;;;3.03;1.48;;;11.30;99.90;;;;;;5086497;28;20048;-70
2023/10/17 14:51:15;;;;;;;4.55;1.70;;;11.30;99.90;;;;;;5105926;28;20077;-71
2023/10/17 14:53:43;;;;;;;4.55;1.40;;;11.30;99.90;;;;;;5089233;28;20040;-70
2023/10/17 14:56:12;;;;;;;3.22;1.73;;;11.20;99.90;;;;;;5097385;28;20047;-71
2023/10/17 14:58:46;;;;;;;3.50;1.60;;;11.20;99.90;;;;;;5079771;28;20058;-70
2023/10/17 15:01:14;;;;;;;3.25;1.60;;;11.20;99.90;;;;;;5080004;28;20047;-71
2023/10/17 15:03:41;;;;;;;2.95;1.70;;;11.10;99.90;;;;;;5081408;28;20044;-71
2023/10/17 15:06:09;;;;;;;4.15;1.73;;;11.20;99.90;;;;;;5116320;28;20085;-71
2023/10/17 15:08:36;;;;;;;1.33;1.17;;;11.10;99.90;;;;;;5098031;28;20055;-71
2023/10/17 15:11:05;;;;;;;2.50;2.05;;;11.20;99.90;;;;;;5118080;28;20062;-70
2023/10/17 15:13:34;;;;;;;3.17;1.40;;;11.10;99.90;;;;;;5099203;28;20184;-70
2023/10/17 15:16:02;;;;;;;4.60;1.58;;;11.10;99.90;;;;;;5098612;28;20044;-70